createdAt,value
2018-12-31T10:42:33.151Z,102769.69
2018-12-31T10:44:48.658Z,102768.27
2018-12-31T10:47:21.893Z,102777.16
2018-12-31T10:49:54.330Z,102782.89
2018-12-31T10:52:26.864Z,102789.51
2018-12-31T10:54:59.705Z,102783.81
2018-12-31T10:57:32.384Z,102778.92
2018-12-31T11:02:49.146Z,102784.32
2018-12-31T11:05:27.963Z,102779.39
2018-12-31T11:08:25.320Z,102767.72
2018-12-31T11:11:04.760Z,102765.55
2018-12-31T11:13:44.251Z,102759.28
2018-12-31T11:16:19.508Z,102747.34
2018-12-31T11:18:56.885Z,102745.47
2018-12-31T11:21:36.752Z,102753.94
2018-12-31T11:24:12.708Z,102748.54
2018-12-31T11:26:47.128Z,102736.92
2018-12-31T11:29:23.453Z,102724.42
2018-12-31T11:31:58.564Z,102725.33
2018-12-31T11:34:36.426Z,102722.25
2018-12-31T11:37:19.110Z,102721.19
2018-12-31T11:39:58.796Z,102719.38
2018-12-31T11:45:50.813Z,102721.27
2018-12-31T11:48:30.459Z,102713.66
2018-12-31T11:51:05.658Z,102710.56
2018-12-31T11:53:39.017Z,102707.83
2018-12-31T11:56:16.436Z,102702.94
2018-12-31T11:58:49.674Z,102699.30
2018-12-31T12:01:25.846Z,102700.72
2018-12-31T12:04:00.788Z,102693.16
2018-12-31T12:06:34.063Z,102694.81
2018-12-31T12:09:09.469Z,102689.00
2018-12-31T12:11:41.931Z,102679.22
2018-12-31T12:14:23.038Z,102684.02
2018-12-31T12:16:55.611Z,102679.55
2018-12-31T12:19:27.508Z,102674.70
2018-12-31T12:22:00.014Z,102677.27
2018-12-31T12:24:32.753Z,102674.57
2018-12-31T12:27:06.204Z,102671.45
2018-12-31T12:29:42.027Z,102675.11
2018-12-31T12:32:16.711Z,102668.45
2018-12-31T12:34:51.317Z,102670.71
2018-12-31T12:37:25.820Z,102666.59
2018-12-31T12:40:00.961Z,102665.24
2018-12-31T12:42:35.076Z,102671.11
2018-12-31T12:45:08.478Z,102671.02
2018-12-31T12:47:42.495Z,102673.32
2018-12-31T12:50:15.830Z,102672.41
2018-12-31T12:52:49.679Z,102670.52
2018-12-31T12:55:25.752Z,102668.42
2018-12-31T12:57:59.049Z,102661.19
2018-12-31T13:00:36.683Z,102660.73
2018-12-31T13:03:14.490Z,102657.53
2018-12-31T13:05:48.285Z,102652.64
2018-12-31T13:08:21.847Z,102649.92
2018-12-31T13:11:00.008Z,102653.44
2018-12-31T13:13:33.577Z,102653.02
2018-12-31T13:16:06.852Z,102648.97
2018-12-31T13:18:45.601Z,102644.20
2018-12-31T13:21:21.528Z,102649.50
2018-12-31T13:23:57.029Z,102643.73
2018-12-31T13:26:29.548Z,102644.97
2018-12-31T13:29:06.625Z,102647.64
2018-12-31T13:31:41.515Z,102647.25
2018-12-31T13:34:15.903Z,102639.32
2018-12-31T13:36:57.868Z,102637.92
2018-12-31T13:39:33.479Z,102628.52
2018-12-31T13:42:12.863Z,102625.84
2018-12-31T13:44:49.807Z,102628.14
2018-12-31T13:47:24.914Z,102623.67
2018-12-31T13:50:02.561Z,102627.22
2018-12-31T13:52:37.790Z,102626.77
2018-12-31T13:55:14.234Z,102616.16
2018-12-31T13:57:57.061Z,102606.77
2018-12-31T14:00:31.587Z,102609.40
2018-12-31T14:03:06.890Z,102606.73
2018-12-31T14:05:42.041Z,102610.73
2018-12-31T14:08:15.814Z,102606.69
2018-12-31T14:11:04.552Z,102610.63
2018-12-31T14:13:39.512Z,102612.45
2018-12-31T14:16:14.089Z,102612.89
2018-12-31T14:18:51.166Z,102616.95
2018-12-31T14:21:29.291Z,102617.84
2018-12-31T14:24:02.457Z,102618.76
2018-12-31T14:26:40.175Z,102608.48
2018-12-31T14:29:13.112Z,102604.86
2018-12-31T14:31:50.004Z,102611.99
2018-12-31T14:34:25.239Z,102606.69
2018-12-31T14:37:01.526Z,102612.95
2018-12-31T14:39:42.408Z,102615.21
2018-12-31T14:42:25.085Z,102617.44
2018-12-31T14:45:00.314Z,102617.44
2018-12-31T14:47:35.905Z,102612.95
2018-12-31T14:50:12.124Z,102617.77
2018-12-31T14:52:44.909Z,102607.54
2018-12-31T14:55:17.600Z,102603.95
2018-12-31T14:57:48.850Z,102601.80
2018-12-31T15:00:22.568Z,102605.73
2018-12-31T15:03:00.610Z,102596.44
2018-12-31T15:05:34.189Z,102590.18
2018-12-31T15:08:06.774Z,102586.64
2018-12-31T15:10:41.016Z,102592.77
2018-12-31T15:13:16.904Z,102585.30
2018-12-31T15:16:03.683Z,102604.05
2018-12-31T15:18:41.096Z,102588.08
2018-12-31T15:21:17.225Z,102593.50
2018-12-31T15:23:50.187Z,102594.82
2018-12-31T15:26:25.813Z,102591.23
2018-12-31T15:29:00.790Z,102590.86
2018-12-31T15:31:32.691Z,102586.91
2018-12-31T15:34:08.518Z,102591.91
2018-12-31T15:36:46.625Z,102585.31
2018-12-31T15:39:21.349Z,102585.73
2018-12-31T15:41:55.304Z,102584.78
2018-12-31T15:44:31.700Z,102591.47
2018-12-31T15:47:08.116Z,102597.30
2018-12-31T15:49:45.503Z,102599.17
2018-12-31T15:52:22.838Z,102599.06
2018-12-31T15:55:03.471Z,102598.55
2018-12-31T15:57:44.401Z,102594.24
2018-12-31T16:00:20.390Z,102602.30
2018-12-31T16:02:53.860Z,102597.43
2018-12-31T16:05:25.751Z,102594.33
2018-12-31T16:08:14.082Z,102577.45
2018-12-31T16:10:47.240Z,102576.16
2018-12-31T16:13:20.698Z,102580.64
2018-12-31T16:15:54.172Z,102571.23
2018-12-31T16:18:28.479Z,102572.50
2018-12-31T16:21:01.057Z,102568.62
2018-12-31T16:23:33.499Z,102573.91
2018-12-31T16:26:05.558Z,102569.90
2018-12-31T16:28:38.753Z,102566.78
2018-12-31T16:31:11.258Z,102566.71
2018-12-31T16:33:43.567Z,102569.88
2018-12-31T16:36:15.945Z,102564.52
2018-12-31T16:38:48.876Z,102563.61
2018-12-31T16:41:21.368Z,102561.42
2018-12-31T16:43:55.192Z,102560.02
2018-12-31T16:46:28.728Z,102546.69
2018-12-31T16:49:00.714Z,102543.55
2018-12-31T16:51:33.909Z,102552.41
2018-12-31T16:54:05.934Z,102552.41
2018-12-31T16:56:38.622Z,102541.75
2018-12-31T16:59:11.656Z,102543.05
2018-12-31T17:01:44.119Z,102555.06
2018-12-31T17:04:16.592Z,102552.00
2018-12-31T17:06:49.728Z,102556.49
2018-12-31T17:09:21.975Z,102549.34
2018-12-31T17:11:54.456Z,102550.28
2018-12-31T17:14:26.565Z,102557.86
2018-12-31T17:16:58.859Z,102556.92
2018-12-31T17:19:31.332Z,102544.02
2018-12-31T17:22:04.880Z,102538.27
2018-12-31T17:24:36.853Z,102540.88
2018-12-31T17:27:09.422Z,102532.00
2018-12-31T17:29:42.493Z,102528.83
2018-12-31T17:32:15.791Z,102545.73
2018-12-31T17:34:48.538Z,102529.61
2018-12-31T17:37:22.057Z,102523.40
2018-12-31T17:39:55.017Z,102528.30
2018-12-31T17:42:28.749Z,102523.83
2018-12-31T17:45:02.001Z,102521.10
2018-12-31T17:47:34.966Z,102517.97
2018-12-31T17:50:08.402Z,102518.31
2018-12-31T17:52:42.988Z,102529.00
2018-12-31T17:55:16.788Z,102521.81
2018-12-31T17:57:50.388Z,102524.86
2018-12-31T18:00:23.597Z,102522.19
2018-12-31T18:02:56.230Z,102523.95
2018-12-31T18:05:28.598Z,102517.67
2018-12-31T18:08:01.206Z,102519.41
2018-12-31T18:10:34.058Z,102510.91
2018-12-31T18:13:07.702Z,102511.28
2018-12-31T18:15:44.752Z,102506.97
2018-12-31T18:18:24.533Z,102512.24
2018-12-31T18:20:57.975Z,102513.53
2018-12-31T18:23:31.685Z,102510.48
2018-12-31T18:26:04.706Z,102509.52
2018-12-31T18:28:36.216Z,102507.70
2018-12-31T18:31:08.875Z,102498.27
2018-12-31T18:33:41.972Z,102492.88
2018-12-31T18:36:15.179Z,102492.51
2018-12-31T18:38:48.596Z,102494.26
2018-12-31T18:41:21.171Z,102498.30
2018-12-31T18:43:53.843Z,102484.91
2018-12-31T18:46:26.404Z,102489.30
2018-12-31T18:48:58.731Z,102488.84
2018-12-31T18:51:31.678Z,102484.88
2018-12-31T18:54:03.904Z,102487.63
2018-12-31T18:56:37.406Z,102483.93
2018-12-31T18:59:09.495Z,102473.73
2018-12-31T19:01:41.815Z,102477.83
2018-12-31T19:04:18.421Z,102465.75
2018-12-31T19:06:50.649Z,102439.89
2018-12-31T19:09:22.735Z,102450.25
2018-12-31T19:11:55.286Z,102454.25
2018-12-31T19:14:28.594Z,102445.80
2018-12-31T19:17:02.976Z,102441.40
2018-12-31T19:19:35.260Z,102440.09
2018-12-31T19:22:07.959Z,102440.63
2018-12-31T19:24:40.165Z,102430.73
2018-12-31T19:27:12.782Z,102433.37
2018-12-31T19:29:45.296Z,102438.46
2018-12-31T19:32:18.048Z,102435.78
2018-12-31T19:34:50.345Z,102434.43
2018-12-31T19:37:23.801Z,102434.98
2018-12-31T19:39:56.019Z,102428.20
2018-12-31T19:42:28.602Z,102428.25
2018-12-31T19:45:02.155Z,102425.63
2018-12-31T19:47:35.659Z,102428.00
2018-12-31T19:50:09.156Z,102425.67
2018-12-31T19:52:42.451Z,102419.45
2018-12-31T19:55:13.652Z,102406.69
2018-12-31T19:57:45.667Z,102399.59
2018-12-31T20:00:18.481Z,102393.91
2018-12-31T20:02:51.654Z,102385.03
2018-12-31T20:05:23.938Z,102376.19
2018-12-31T20:07:56.462Z,102374.84
2018-12-31T20:10:28.832Z,102364.59
2018-12-31T20:13:01.001Z,102361.94
2018-12-31T20:15:33.929Z,102356.97
2018-12-31T20:18:06.416Z,102359.65
2018-12-31T20:20:39.962Z,102364.09
2018-12-31T20:23:12.237Z,102364.52
2018-12-31T20:25:49.012Z,102366.73
2018-12-31T20:28:22.148Z,102375.11
2018-12-31T20:30:55.993Z,102380.01
2018-12-31T20:33:29.164Z,102375.03
2018-12-31T20:36:03.195Z,102355.47
2018-12-31T20:38:36.256Z,102356.80
2018-12-31T20:41:09.436Z,102347.42
2018-12-31T20:43:42.608Z,102344.78
2018-12-31T20:46:15.128Z,102361.73
2018-12-31T20:48:49.524Z,102358.19
2018-12-31T20:51:22.399Z,102358.14
2018-12-31T20:53:55.049Z,102346.12
2018-12-31T20:56:28.870Z,102340.39
2018-12-31T20:59:01.737Z,102339.05
2018-12-31T21:01:34.556Z,102344.84
2018-12-31T21:04:07.484Z,102327.89
2018-12-31T21:06:40.411Z,102329.30
2018-12-31T21:09:13.723Z,102336.42
2018-12-31T21:11:45.725Z,102352.59
2018-12-31T21:14:18.208Z,102340.45
2018-12-31T21:16:50.543Z,102342.76
2018-12-31T21:19:22.734Z,102319.55
2018-12-31T21:21:55.125Z,102304.87
2018-12-31T21:24:27.887Z,102302.59
2018-12-31T21:27:00.758Z,102303.44
2018-12-31T21:29:33.089Z,102298.97
2018-12-31T21:32:05.763Z,102288.23
2018-12-31T21:34:38.656Z,102297.22
2018-12-31T21:37:11.306Z,102293.95
2018-12-31T21:39:43.914Z,102274.83
2018-12-31T21:42:17.408Z,102273.52
2018-12-31T21:44:50.302Z,102262.05
2018-12-31T21:47:22.480Z,102246.42
2018-12-31T21:49:54.451Z,102241.98
2018-12-31T21:52:26.890Z,102245.14
2018-12-31T21:54:59.680Z,102231.87
2018-12-31T21:57:33.907Z,102217.48
2018-12-31T22:00:07.881Z,102210.02
2018-12-31T22:02:41.555Z,102215.95
2018-12-31T22:05:13.572Z,102213.61
2018-12-31T22:07:46.046Z,102217.64
2018-12-31T22:10:18.789Z,102224.50
2018-12-31T22:12:52.015Z,102212.87
2018-12-31T22:15:24.196Z,102197.73
2018-12-31T22:17:56.775Z,102190.64
2018-12-31T22:20:28.944Z,102187.48
2018-12-31T22:23:00.950Z,102175.52
2018-12-31T22:25:33.463Z,102177.59
2018-12-31T22:28:05.442Z,102176.26
2018-12-31T22:30:40.613Z,102164.73
2018-12-31T22:33:13.196Z,102159.80
2018-12-31T22:35:48.996Z,102147.78
2018-12-31T22:38:21.924Z,102140.23
2018-12-31T22:40:54.740Z,102132.75
2018-12-31T22:43:28.064Z,102135.80
2018-12-31T22:46:01.827Z,102137.54
2018-12-31T22:48:34.257Z,102131.41
2018-12-31T22:51:06.737Z,102115.86
2018-12-31T22:53:40.150Z,102105.03
2018-12-31T22:56:13.969Z,102098.77
2018-12-31T22:58:51.567Z,102090.38
2018-12-31T23:01:24.602Z,102095.66
2018-12-31T23:04:00.109Z,102102.18
2018-12-31T23:06:32.083Z,102101.71
2018-12-31T23:09:05.217Z,102102.05
2018-12-31T23:11:38.150Z,102095.94
2018-12-31T23:14:10.251Z,102091.50
2018-12-31T23:16:46.880Z,102097.73
2018-12-31T23:19:20.177Z,102089.32
2018-12-31T23:21:53.163Z,102090.09
2018-12-31T23:24:26.820Z,102072.33
2018-12-31T23:26:59.029Z,102074.91
2018-12-31T23:29:31.259Z,102069.16
2018-12-31T23:32:03.799Z,102065.56
2018-12-31T23:34:37.824Z,102058.45
2018-12-31T23:37:11.195Z,102060.62
2018-12-31T23:39:44.887Z,102053.94
2018-12-31T23:42:17.723Z,102056.61
2018-12-31T23:44:53.019Z,102042.79
2018-12-31T23:49:01.505Z,102027.97
2018-12-31T23:51:34.021Z,102022.52
2018-12-31T23:54:06.704Z,102031.14
2018-12-31T23:56:39.024Z,102027.53
2018-12-31T23:59:12.325Z,102012.87
